createdAt,value
2022-08-08T00:00:55.849Z,0.60
2022-08-08T00:02:44.942Z,0.60
2022-08-08T00:06:02.735Z,0.60
2022-08-08T00:08:51.539Z,0.53
2022-08-08T00:12:03.308Z,0.70
2022-08-08T00:15:00.797Z,0.60
2022-08-08T00:18:03.604Z,0.70
2022-08-08T00:20:58.817Z,0.40
2022-08-08T00:23:53.604Z,0.70
2022-08-08T00:26:52.467Z,0.70
2022-08-08T00:30:04.059Z,0.70
2022-08-08T00:33:00.653Z,0.68
2022-08-08T00:35:53.910Z,0.70
2022-08-08T00:41:07.101Z,0.60
2022-08-08T00:42:30.414Z,0.62
2022-08-08T00:45:27.155Z,0.70
2022-08-08T00:48:33.880Z,0.60
2022-08-08T00:51:48.121Z,0.60
2022-08-08T00:55:01.041Z,0.60
2022-08-08T00:57:56.972Z,0.65
2022-08-08T01:00:51.372Z,0.65
2022-08-08T01:03:59.864Z,0.70
2022-08-08T01:06:48.763Z,0.75
2022-08-08T01:10:13.083Z,0.70
2022-08-08T01:13:43.570Z,0.62
2022-08-08T01:19:52.445Z,0.70
2022-08-08T01:22:40.270Z,0.88
2022-08-08T01:26:02.264Z,0.85
2022-08-08T01:29:15.203Z,0.50
2022-08-08T01:32:35.962Z,0.70
2022-08-08T01:35:42.932Z,0.47
2022-08-08T01:38:51.386Z,0.72
2022-08-08T01:42:03.031Z,0.60
2022-08-08T01:45:06.308Z,0.70
2022-08-08T01:48:27.899Z,0.80
2022-08-08T01:51:30.594Z,0.80
2022-08-08T01:55:45.149Z,0.70
2022-08-08T01:57:02.601Z,0.65
2022-08-08T02:00:13.017Z,0.70
2022-08-08T02:03:55.934Z,0.70
2022-08-08T02:06:43.356Z,0.70
2022-08-08T02:10:02.333Z,0.72
2022-08-08T02:12:56.238Z,0.60
2022-08-08T02:15:52.682Z,0.70
2022-08-08T02:18:58.771Z,0.60
2022-08-08T02:22:13.227Z,0.65
2022-08-08T02:25:11.794Z,0.70
2022-08-08T02:28:20.242Z,0.57
2022-08-08T02:31:43.996Z,0.60
2022-08-08T02:34:33.177Z,0.53
2022-08-08T02:37:51.966Z,0.70
2022-08-08T02:40:30.741Z,0.68
2022-08-08T02:44:37.085Z,0.70
2022-08-08T02:46:41.891Z,0.68
2022-08-08T02:49:50.653Z,0.50
2022-08-08T02:52:56.205Z,0.53
2022-08-08T02:56:04.053Z,0.47
2022-08-08T02:59:17.252Z,0.80
2022-08-08T03:02:20.050Z,0.70
2022-08-08T03:05:44.989Z,0.70
2022-08-08T03:08:36.652Z,0.70
2022-08-08T03:12:02.740Z,0.88
2022-08-08T03:15:56.484Z,0.60
2022-08-08T03:18:06.665Z,0.50
2022-08-08T03:20:52.433Z,0.57
2022-08-08T03:23:57.373Z,0.60
2022-08-08T03:26:42.087Z,0.80
2022-08-08T03:29:54.694Z,0.80
2022-08-08T03:32:36.639Z,0.72
2022-08-08T03:35:27.038Z,0.70
2022-08-08T03:38:56.323Z,0.75
2022-08-08T03:41:08.891Z,0.70
2022-08-08T03:43:59.639Z,0.57
2022-08-08T03:46:51.110Z,0.60
2022-08-08T03:50:00.043Z,0.80
2022-08-08T03:52:30.100Z,0.80
2022-08-08T03:55:56.212Z,0.68
2022-08-08T03:58:35.615Z,0.50
2022-08-08T04:01:23.649Z,0.70
2022-08-08T04:03:59.302Z,3.42
2022-08-08T04:06:40.414Z,0.90
2022-08-08T04:09:59.068Z,0.70
2022-08-08T04:12:17.348Z,0.70
2022-08-08T04:15:07.020Z,0.60
2022-08-08T04:17:59.170Z,0.60
2022-08-08T04:20:43.361Z,0.70
2022-08-08T04:23:33.400Z,0.60
2022-08-08T04:26:19.682Z,0.70
2022-08-08T04:29:07.226Z,0.80
2022-08-08T04:31:59.273Z,0.90
2022-08-08T04:34:58.326Z,0.95
2022-08-08T04:37:34.344Z,0.70
2022-08-08T04:40:23.743Z,0.70
2022-08-08T04:43:11.472Z,0.60
2022-08-08T04:45:59.047Z,1.20
2022-08-08T04:48:46.241Z,0.90
2022-08-08T04:51:54.781Z,1.20
2022-08-08T04:54:39.035Z,0.90
2022-08-08T04:57:12.851Z,0.60
2022-08-08T05:00:00.768Z,0.70
2022-08-08T05:02:49.775Z,0.72
2022-08-08T05:05:45.440Z,0.90
2022-08-08T05:08:28.801Z,0.98
2022-08-08T05:11:23.794Z,0.72
2022-08-08T05:14:06.174Z,0.70
2022-08-08T05:17:01.552Z,2.30
2022-08-08T05:20:12.355Z,1.10
2022-08-08T05:22:32.531Z,1.00
2022-08-08T05:25:21.327Z,1.00
2022-08-08T05:28:09.210Z,1.00
2022-08-08T05:30:56.788Z,0.90
2022-08-08T05:33:49.475Z,0.90
2022-08-08T05:36:38.276Z,0.80
2022-08-08T05:39:28.581Z,0.80
2022-08-08T05:42:19.397Z,0.95
2022-08-08T05:45:10.348Z,0.80
2022-08-08T05:48:00.597Z,0.90
2022-08-08T05:50:46.747Z,0.90
2022-08-08T05:54:24.545Z,0.88
2022-08-08T05:56:24.500Z,0.95
2022-08-08T05:59:59.349Z,0.70
2022-08-08T06:02:12.520Z,1.00
2022-08-08T06:05:02.681Z,0.78
2022-08-08T06:07:53.226Z,0.70
2022-08-08T06:10:42.398Z,1.12
2022-08-08T06:13:36.160Z,0.70
2022-08-08T06:16:27.591Z,0.70
2022-08-08T06:19:16.173Z,0.85
2022-08-08T06:22:00.514Z,0.93
2022-08-08T06:24:51.098Z,0.85
2022-08-08T06:27:55.015Z,0.80
2022-08-08T06:30:44.777Z,0.75
2022-08-08T06:34:26.754Z,0.62
2022-08-08T06:36:53.278Z,0.75
2022-08-08T06:39:32.561Z,0.80
2022-08-08T06:42:19.333Z,0.70
2022-08-08T06:45:08.290Z,0.82
2022-08-08T06:48:01.273Z,0.70
2022-08-08T06:50:46.461Z,0.80
2022-08-08T06:53:39.647Z,1.10
2022-08-08T06:56:25.044Z,0.80
2022-08-08T06:59:13.871Z,0.62
2022-08-08T07:02:17.870Z,1.17
2022-08-08T07:04:58.544Z,0.65
2022-08-08T07:08:08.784Z,0.80
2022-08-08T07:10:58.965Z,0.90
2022-08-08T07:14:00.505Z,0.80
2022-08-08T07:16:58.417Z,0.80
2022-08-08T07:20:01.510Z,1.07
2022-08-08T07:23:01.105Z,0.88
2022-08-08T07:25:54.603Z,1.20
2022-08-08T07:28:42.923Z,0.90
2022-08-08T07:31:35.424Z,1.00
2022-08-08T07:34:31.447Z,1.02
2022-08-08T07:37:13.523Z,0.80
2022-08-08T07:40:05.075Z,1.00
2022-08-08T07:42:54.579Z,0.90
2022-08-08T07:46:05.666Z,0.70
2022-08-08T07:48:34.323Z,0.62
2022-08-08T07:51:45.224Z,0.90
2022-08-08T07:54:26.878Z,0.68
2022-08-08T07:57:36.052Z,0.80
2022-08-08T08:00:26.806Z,0.85
2022-08-08T08:03:41.196Z,0.78
2022-08-08T08:06:22.746Z,0.90
2022-08-08T08:09:26.887Z,1.00
2022-08-08T08:12:35.620Z,0.80
2022-08-08T08:15:08.570Z,0.68
2022-08-08T08:17:59.589Z,1.07
2022-08-08T08:20:47.237Z,0.98
2022-08-08T08:23:40.556Z,0.90
2022-08-08T08:26:27.689Z,0.85
2022-08-08T08:29:16.557Z,0.65
2022-08-08T08:32:05.755Z,0.82
2022-08-08T08:34:52.321Z,0.95
2022-08-08T08:38:05.951Z,0.93
2022-08-08T08:40:31.564Z,0.88
2022-08-08T08:43:26.900Z,0.88
2022-08-08T08:46:12.413Z,0.80
2022-08-08T08:49:02.012Z,1.40
2022-08-08T08:51:52.224Z,1.20
2022-08-08T08:54:40.575Z,0.80
2022-08-08T08:57:30.347Z,0.82
2022-08-08T09:00:19.439Z,0.90
2022-08-08T09:03:09.274Z,0.88
2022-08-08T09:05:58.752Z,0.90
2022-08-08T09:08:49.873Z,1.42
2022-08-08T09:11:47.654Z,0.80
2022-08-08T09:14:29.453Z,0.90
2022-08-08T09:17:19.433Z,0.90
2022-08-08T09:21:56.003Z,0.98
2022-08-08T09:22:58.882Z,1.35
2022-08-08T09:26:02.446Z,0.80
2022-08-08T09:28:45.348Z,0.78
2022-08-08T09:31:42.590Z,0.95
2022-08-08T09:34:32.757Z,0.82
2022-08-08T09:37:57.049Z,1.15
2022-08-08T09:40:11.804Z,0.90
2022-08-08T09:43:16.629Z,1.00
2022-08-08T09:46:06.613Z,0.80
2022-08-08T09:48:55.433Z,0.90
2022-08-08T09:52:06.698Z,2.95
2022-08-08T09:54:38.587Z,0.75
2022-08-08T09:57:45.985Z,0.90
2022-08-08T10:00:37.729Z,1.00
2022-08-08T10:03:19.718Z,1.05
2022-08-08T10:06:16.835Z,0.90
2022-08-08T10:09:04.180Z,0.70
2022-08-08T10:12:27.834Z,0.98
2022-08-08T10:14:40.865Z,0.70
2022-08-08T10:17:56.790Z,0.90
2022-08-08T10:20:27.799Z,0.80
2022-08-08T10:23:14.934Z,0.68
2022-08-08T10:26:04.359Z,0.80
2022-08-08T10:29:00.220Z,0.78
2022-08-08T10:32:06.112Z,0.85
2022-08-08T10:35:00.381Z,0.62
2022-08-08T10:37:53.770Z,0.78
2022-08-08T10:40:42.382Z,0.80
2022-08-08T10:43:43.142Z,0.62
2022-08-08T10:46:31.718Z,0.70
2022-08-08T10:49:26.908Z,0.90
2022-08-08T10:52:13.835Z,1.10
2022-08-08T10:55:15.411Z,0.80
2022-08-08T10:58:05.924Z,0.90
2022-08-08T11:01:02.283Z,0.70
2022-08-08T11:04:00.583Z,0.80
2022-08-08T11:06:41.915Z,0.90
2022-08-08T11:09:26.899Z,0.88
2022-08-08T11:12:16.069Z,0.80
2022-08-08T11:15:06.312Z,0.90
2022-08-08T11:18:00.534Z,1.25
2022-08-08T11:20:52.410Z,0.90
2022-08-08T11:23:35.343Z,1.00
2022-08-08T11:26:27.901Z,0.75
2022-08-08T11:29:12.761Z,0.93
2022-08-08T11:32:03.684Z,0.90
2022-08-08T11:35:27.049Z,0.90
2022-08-08T11:38:36.925Z,0.90
2022-08-08T11:40:35.249Z,1.10
2022-08-08T11:43:39.208Z,0.78
2022-08-08T11:46:17.848Z,0.80
2022-08-08T11:49:09.239Z,0.80
2022-08-08T11:52:18.215Z,0.70
2022-08-08T11:55:19.128Z,0.78
2022-08-08T11:58:15.245Z,0.88
2022-08-08T12:01:02.893Z,0.85
2022-08-08T12:03:56.132Z,0.80
2022-08-08T12:06:43.585Z,0.80
2022-08-08T12:09:56.490Z,0.70
2022-08-08T12:12:28.997Z,0.62
2022-08-08T12:15:42.762Z,0.90
2022-08-08T12:18:24.607Z,0.62
2022-08-08T12:21:25.836Z,0.70
2022-08-08T12:24:15.416Z,0.90
2022-08-08T12:27:04.542Z,0.65
2022-08-08T12:29:59.872Z,0.70
2022-08-08T12:32:49.298Z,0.80
2022-08-08T12:35:52.313Z,0.80
2022-08-08T12:38:31.666Z,0.70
2022-08-08T12:41:33.451Z,0.80
2022-08-08T12:44:13.374Z,0.70
2022-08-08T12:47:02.965Z,0.65
2022-08-08T12:49:54.752Z,0.60
2022-08-08T12:52:42.452Z,0.65
2022-08-08T12:55:50.310Z,0.80
2022-08-08T12:58:20.289Z,0.75
2022-08-08T13:01:12.328Z,0.70
2022-08-08T13:04:00.295Z,0.90
2022-08-08T13:07:00.876Z,0.70
2022-08-08T13:10:01.965Z,0.70
2022-08-08T13:12:47.074Z,0.80
2022-08-08T13:15:34.136Z,0.55
2022-08-08T13:18:27.348Z,0.80
2022-08-08T13:21:16.306Z,0.70
2022-08-08T13:24:05.320Z,0.90
2022-08-08T13:27:10.754Z,0.80
2022-08-08T13:30:04.204Z,0.78
2022-08-08T13:32:54.200Z,0.60
2022-08-08T13:35:43.866Z,0.60
2022-08-08T13:38:32.046Z,0.78
2022-08-08T13:41:21.892Z,0.82
2022-08-08T13:44:10.887Z,0.80
2022-08-08T13:47:00.556Z,0.70
2022-08-08T13:50:43.960Z,0.72
2022-08-08T13:52:58.079Z,0.68
2022-08-08T13:55:45.425Z,1.27
2022-08-08T13:58:34.634Z,0.90
2022-08-08T14:01:23.305Z,0.60
2022-08-08T14:04:13.852Z,0.80
2022-08-08T14:07:05.356Z,0.70
2022-08-08T14:10:05.314Z,0.60
2022-08-08T14:12:46.548Z,0.70
2022-08-08T14:15:50.178Z,0.70
2022-08-08T14:18:36.019Z,0.93
2022-08-08T14:21:20.682Z,0.50
2022-08-08T14:24:08.876Z,0.80
2022-08-08T14:26:56.211Z,0.95
2022-08-08T14:29:59.965Z,1.00
2022-08-08T14:32:53.183Z,0.72
2022-08-08T14:35:43.117Z,1.05
2022-08-08T14:38:33.283Z,1.20
2022-08-08T14:41:53.141Z,0.80
2022-08-08T14:44:21.181Z,0.78
2022-08-08T14:47:01.552Z,1.20
2022-08-08T14:50:02.369Z,0.90
2022-08-08T14:52:51.264Z,0.90
2022-08-08T14:55:42.197Z,0.70
2022-08-08T14:58:28.428Z,0.90
2022-08-08T15:01:23.842Z,0.60
2022-08-08T15:04:08.855Z,0.70
2022-08-08T15:06:56.672Z,0.78
2022-08-08T15:09:44.265Z,0.90
2022-08-08T15:12:31.745Z,0.82
2022-08-08T15:16:01.474Z,0.80
2022-08-08T15:18:10.829Z,0.70
2022-08-08T15:20:58.372Z,0.90
2022-08-08T15:23:51.159Z,0.85
2022-08-08T15:26:34.612Z,0.88
2022-08-08T15:29:24.344Z,0.85
2022-08-08T15:32:20.778Z,0.90
2022-08-08T15:35:00.723Z,0.80
2022-08-08T15:37:49.603Z,0.80
2022-08-08T15:40:37.561Z,0.80
2022-08-08T15:43:36.072Z,0.70
2022-08-08T15:46:14.207Z,0.60
2022-08-08T15:49:04.140Z,0.80
2022-08-08T15:51:54.592Z,0.78
2022-08-08T15:54:43.588Z,0.80
2022-08-08T15:57:35.232Z,0.80
2022-08-08T16:00:27.845Z,0.70
2022-08-08T16:03:10.157Z,0.72
2022-08-08T16:06:01.655Z,0.70
2022-08-08T16:09:02.185Z,0.80
2022-08-08T16:13:10.364Z,0.90
2022-08-08T16:14:32.766Z,0.80
2022-08-08T16:17:15.577Z,0.70
2022-08-08T16:20:07.845Z,0.88
2022-08-08T16:22:54.198Z,1.22
2022-08-08T16:25:46.607Z,1.10
2022-08-08T16:28:35.624Z,1.00
2022-08-08T16:31:21.428Z,0.78
2022-08-08T16:34:11.051Z,0.80
2022-08-08T16:36:57.954Z,0.80
2022-08-08T16:40:00.446Z,0.72
2022-08-08T16:42:35.188Z,0.78
2022-08-08T16:46:36.966Z,1.10
2022-08-08T16:48:14.480Z,0.95
2022-08-08T16:51:03.511Z,1.07
2022-08-08T16:55:22.771Z,1.20
2022-08-08T16:57:01.849Z,1.40
2022-08-08T16:59:50.940Z,0.88
2022-08-08T17:02:32.511Z,0.70
2022-08-08T17:05:14.153Z,1.20
2022-08-08T17:08:01.160Z,1.10
2022-08-08T17:10:57.897Z,1.00
2022-08-08T17:13:49.720Z,0.90
2022-08-08T17:16:27.644Z,0.80
2022-08-08T17:19:23.819Z,0.75
2022-08-08T17:22:12.433Z,3.27
2022-08-08T17:25:00.323Z,0.70
2022-08-08T17:27:49.721Z,0.72
2022-08-08T17:30:38.617Z,1.02
2022-08-08T17:34:37.026Z,0.88
2022-08-08T17:36:22.800Z,0.95
2022-08-08T17:39:22.799Z,1.00
2022-08-08T17:42:02.782Z,0.90
2022-08-08T17:44:49.990Z,1.20
2022-08-08T17:47:40.284Z,1.00
2022-08-08T17:50:25.640Z,0.80
2022-08-08T17:53:12.515Z,0.72
2022-08-08T17:56:05.118Z,0.80
2022-08-08T17:58:50.314Z,0.75
2022-08-08T18:01:56.295Z,0.90
2022-08-08T18:04:50.407Z,1.00
2022-08-08T18:08:02.690Z,0.80
2022-08-08T18:10:30.984Z,0.80
2022-08-08T18:13:11.161Z,1.00
2022-08-08T18:16:04.680Z,0.78
2022-08-08T18:18:52.660Z,0.82
2022-08-08T18:22:00.995Z,0.90
2022-08-08T18:24:30.196Z,0.90
2022-08-08T18:27:17.841Z,0.90
2022-08-08T18:30:05.610Z,0.90
2022-08-08T18:32:54.532Z,1.00
2022-08-08T18:35:48.643Z,1.17
2022-08-08T18:38:34.139Z,0.90
2022-08-08T18:41:51.464Z,0.80
2022-08-08T18:44:12.936Z,1.00
2022-08-08T18:46:59.620Z,1.00
2022-08-08T18:49:57.534Z,1.45
2022-08-08T18:52:36.747Z,1.20
2022-08-08T18:55:28.082Z,1.10
2022-08-08T18:58:14.199Z,0.85
2022-08-08T19:01:02.441Z,0.98
2022-08-08T19:04:10.314Z,0.93
2022-08-08T19:06:38.853Z,0.88
2022-08-08T19:09:48.307Z,0.90
2022-08-08T19:12:15.103Z,1.15
2022-08-08T19:15:02.302Z,0.90
2022-08-08T19:18:32.159Z,1.02
2022-08-08T19:20:43.122Z,0.90
2022-08-08T19:23:35.382Z,0.85
2022-08-08T19:26:30.521Z,0.90
2022-08-08T19:29:09.008Z,1.17
2022-08-08T19:31:56.521Z,1.07
2022-08-08T19:34:44.316Z,0.85
2022-08-08T19:37:42.725Z,1.40
2022-08-08T19:40:30.679Z,0.90
2022-08-08T19:43:11.952Z,0.70
2022-08-08T19:46:01.106Z,1.10
2022-08-08T19:48:47.285Z,0.90
2022-08-08T19:51:43.146Z,0.85
2022-08-08T19:54:26.064Z,0.90
2022-08-08T19:57:14.420Z,1.55
2022-08-08T20:00:03.976Z,0.95
2022-08-08T20:02:52.816Z,1.10
2022-08-08T20:06:13.627Z,0.85
2022-08-08T20:08:32.035Z,1.00
2022-08-08T20:11:21.819Z,0.88
2022-08-08T20:14:32.012Z,1.00
2022-08-08T20:16:59.592Z,1.10
2022-08-08T20:19:47.459Z,1.30
2022-08-08T20:22:35.341Z,1.07
2022-08-08T20:25:24.583Z,1.10
2022-08-08T20:28:14.851Z,1.10
2022-08-08T20:31:01.496Z,0.90
2022-08-08T20:34:28.642Z,0.80
2022-08-08T20:36:38.577Z,1.00
2022-08-08T20:39:27.018Z,1.00
2022-08-08T20:42:14.563Z,1.10
2022-08-08T20:45:04.246Z,1.00
2022-08-08T20:47:57.896Z,0.90
2022-08-08T20:50:40.744Z,0.80
2022-08-08T20:53:58.387Z,0.93
2022-08-08T20:56:17.762Z,0.90
2022-08-08T20:59:09.239Z,1.20
2022-08-08T21:02:06.107Z,1.10
2022-08-08T21:04:47.856Z,1.40
2022-08-08T21:07:47.222Z,1.10
2022-08-08T21:10:28.074Z,1.07
2022-08-08T21:13:12.472Z,1.30
2022-08-08T21:16:05.004Z,1.30
2022-08-08T21:18:50.646Z,1.35
2022-08-08T21:21:39.429Z,1.57
2022-08-08T21:24:30.232Z,1.25
2022-08-08T21:28:05.751Z,1.60
2022-08-08T21:30:12.175Z,1.40
2022-08-08T21:32:54.717Z,1.57
2022-08-08T21:36:18.150Z,1.70
2022-08-08T21:38:31.409Z,1.55
2022-08-08T21:41:38.594Z,1.70
2022-08-08T21:44:08.715Z,1.70
2022-08-08T21:48:07.691Z,1.62
2022-08-08T21:49:46.839Z,2.25
2022-08-08T21:54:35.075Z,1.75
2022-08-08T21:56:19.880Z,1.95
2022-08-08T21:58:13.721Z,1.80
2022-08-08T22:01:04.026Z,1.82
2022-08-08T22:03:50.569Z,1.85
2022-08-08T22:06:40.574Z,1.67
2022-08-08T22:09:37.276Z,1.90
2022-08-08T22:12:17.509Z,1.52
2022-08-08T22:15:05.032Z,1.87
2022-08-08T22:17:53.645Z,1.40
2022-08-08T22:20:42.168Z,1.98
2022-08-08T22:23:34.206Z,1.70
2022-08-08T22:26:29.834Z,2.15
2022-08-08T22:29:56.892Z,2.10
2022-08-08T22:32:02.219Z,1.80
2022-08-08T22:34:51.319Z,2.10
2022-08-08T22:37:54.451Z,1.70
2022-08-08T22:40:31.795Z,1.87
2022-08-08T22:43:15.614Z,1.92
2022-08-08T22:46:04.292Z,1.80
2022-08-08T22:48:52.157Z,1.85
2022-08-08T22:51:46.058Z,1.77
2022-08-08T22:54:55.775Z,1.77
2022-08-08T22:57:19.110Z,1.70
2022-08-08T23:00:09.651Z,1.80
2022-08-08T23:02:58.555Z,1.60
2022-08-08T23:05:49.659Z,2.30
2022-08-08T23:08:44.275Z,1.95
2022-08-08T23:12:11.524Z,2.00
2022-08-08T23:14:21.502Z,2.02
2022-08-08T23:17:09.007Z,2.02
2022-08-08T23:19:57.621Z,2.08
2022-08-08T23:22:45.032Z,1.80
2022-08-08T23:25:32.248Z,2.08
2022-08-08T23:28:21.472Z,2.10
2022-08-08T23:31:09.534Z,1.95
2022-08-08T23:34:16.785Z,2.30
2022-08-08T23:36:45.900Z,2.00
2022-08-08T23:39:41.737Z,1.82
2022-08-08T23:42:27.223Z,2.00
2022-08-08T23:45:15.037Z,1.80
2022-08-08T23:49:06.938Z,2.17
2022-08-08T23:50:57.233Z,1.95
2022-08-08T23:54:06.087Z,2.30
2022-08-08T23:56:32.251Z,2.12
2022-08-08T23:59:20.367Z,2.05
